sensor_id;sensor_type;location;lat;lon;timestamp;temperature;humidity
26408;DHT22;14583;43.604;1.364;2023-08-12T00:01:44;25.40;95.00
26408;DHT22;14583;43.604;1.364;2023-08-12T00:04:09;25.30;95.20
26408;DHT22;14583;43.604;1.364;2023-08-12T00:06:40;25.30;95.20
26408;DHT22;14583;43.604;1.364;2023-08-12T00:09:05;25.20;95.60
26408;DHT22;14583;43.604;1.364;2023-08-12T00:11:32;25.20;96.20
26408;DHT22;14583;43.604;1.364;2023-08-12T00:13:57;25.10;96.10
26408;DHT22;14583;43.604;1.364;2023-08-12T00:16:23;25.20;96.40
26408;DHT22;14583;43.604;1.364;2023-08-12T00:18:48;25.30;96.50
26408;DHT22;14583;43.604;1.364;2023-08-12T00:21:14;25.30;96.30
26408;DHT22;14583;43.604;1.364;2023-08-12T00:23:40;25.30;96.90
26408;DHT22;14583;43.604;1.364;2023-08-12T00:26:06;25.30;97.30
26408;DHT22;14583;43.604;1.364;2023-08-12T00:28:32;25.20;97.10
26408;DHT22;14583;43.604;1.364;2023-08-12T00:30:58;25.20;96.90
26408;DHT22;14583;43.604;1.364;2023-08-12T00:33:23;25.30;96.80
26408;DHT22;14583;43.604;1.364;2023-08-12T00:35:49;25.20;97.40
26408;DHT22;14583;43.604;1.364;2023-08-12T00:38:14;25.10;97.40
26408;DHT22;14583;43.604;1.364;2023-08-12T00:40:40;25.10;97.50
26408;DHT22;14583;43.604;1.364;2023-08-12T00:43:05;25.00;98.00
26408;DHT22;14583;43.604;1.364;2023-08-12T00:45:31;24.90;98.00
26408;DHT22;14583;43.604;1.364;2023-08-12T00:47:57;24.80;98.40
26408;DHT22;14583;43.604;1.364;2023-08-12T00:50:22;24.90;98.40
26408;DHT22;14583;43.604;1.364;2023-08-12T00:52:49;24.80;98.60
26408;DHT22;14583;43.604;1.364;2023-08-12T00:55:14;24.80;98.40
26408;DHT22;14583;43.604;1.364;2023-08-12T00:57:40;24.80;98.60
26408;DHT22;14583;43.604;1.364;2023-08-12T01:00:06;24.60;99.00
26408;DHT22;14583;43.604;1.364;2023-08-12T01:02:33;24.50;99.40
26408;DHT22;14583;43.604;1.364;2023-08-12T01:04:58;24.60;99.70
26408;DHT22;14583;43.604;1.364;2023-08-12T01:07:24;24.60;99.00
26408;DHT22;14583;43.604;1.364;2023-08-12T01:09:49;24.70;99.00
26408;DHT22;14583;43.604;1.364;2023-08-12T01:12:28;24.70;98.80
26408;DHT22;14583;43.604;1.364;2023-08-12T01:15:02;24.50;99.10
26408;DHT22;14583;43.604;1.364;2023-08-12T01:17:30;24.60;98.80
26408;DHT22;14583;43.604;1.364;2023-08-12T01:19:56;24.60;99.00
26408;DHT22;14583;43.604;1.364;2023-08-12T01:22:22;24.60;99.30
26408;DHT22;14583;43.604;1.364;2023-08-12T01:24:48;24.50;99.20
26408;DHT22;14583;43.604;1.364;2023-08-12T01:27:16;24.50;99.30
26408;DHT22;14583;43.604;1.364;2023-08-12T01:29:46;24.50;99.40
26408;DHT22;14583;43.604;1.364;2023-08-12T01:37:42;24.50;99.80
26408;DHT22;14583;43.604;1.364;2023-08-12T01:40:08;24.40;99.90
26408;DHT22;14583;43.604;1.364;2023-08-12T01:42:34;24.40;99.90
26408;DHT22;14583;43.604;1.364;2023-08-12T01:45:00;24.40;99.90
26408;DHT22;14583;43.604;1.364;2023-08-12T01:47:27;24.40;99.90
26408;DHT22;14583;43.604;1.364;2023-08-12T01:49:52;24.30;99.90
26408;DHT22;14583;43.604;1.364;2023-08-12T01:52:18;24.20;99.90
26408;DHT22;14583;43.604;1.364;2023-08-12T01:54:44;24.20;99.90
26408;DHT22;14583;43.604;1.364;2023-08-12T01:57:09;24.20;99.90
26408;DHT22;14583;43.604;1.364;2023-08-12T01:59:35;24.30;99.90
26408;DHT22;14583;43.604;1.364;2023-08-12T02:02:01;24.30;99.90
26408;DHT22;14583;43.604;1.364;2023-08-12T02:04:26;24.20;99.90
26408;DHT22;14583;43.604;1.364;2023-08-12T02:06:53;23.90;99.90
26408;DHT22;14583;43.604;1.364;2023-08-12T02:09:18;23.90;99.90
26408;DHT22;14583;43.604;1.364;2023-08-12T02:11:44;23.90;99.90
26408;DHT22;14583;43.604;1.364;2023-08-12T02:14:09;23.90;99.90
26408;DHT22;14583;43.604;1.364;2023-08-12T02:16:35;23.90;99.90
26408;DHT22;14583;43.604;1.364;2023-08-12T02:19:01;23.90;99.90
26408;DHT22;14583;43.604;1.364;2023-08-12T02:21:26;23.90;99.90
26408;DHT22;14583;43.604;1.364;2023-08-12T02:23:52;23.90;99.90
26408;DHT22;14583;43.604;1.364;2023-08-12T02:26:17;23.90;99.90
26408;DHT22;14583;43.604;1.364;2023-08-12T02:28:43;24.00;99.90
26408;DHT22;14583;43.604;1.364;2023-08-12T02:31:08;24.00;99.90
26408;DHT22;14583;43.604;1.364;2023-08-12T02:33:34;23.90;99.90
26408;DHT22;14583;43.604;1.364;2023-08-12T02:35:59;23.80;99.90
26408;DHT22;14583;43.604;1.364;2023-08-12T02:38:25;23.80;99.90
26408;DHT22;14583;43.604;1.364;2023-08-12T02:40:51;23.60;99.90
26408;DHT22;14583;43.604;1.364;2023-08-12T02:43:16;23.70;99.90
26408;DHT22;14583;43.604;1.364;2023-08-12T02:45:42;23.60;99.90
26408;DHT22;14583;43.604;1.364;2023-08-12T02:48:09;23.50;99.90
26408;DHT22;14583;43.604;1.364;2023-08-12T02:50:34;23.60;99.90
26408;DHT22;14583;43.604;1.364;2023-08-12T02:53:00;23.60;99.90
26408;DHT22;14583;43.604;1.364;2023-08-12T02:55:25;23.50;99.90
26408;DHT22;14583;43.604;1.364;2023-08-12T02:57:51;23.50;99.90
26408;DHT22;14583;43.604;1.364;2023-08-12T03:00:17;23.50;99.90
26408;DHT22;14583;43.604;1.364;2023-08-12T03:02:42;23.50;99.90
26408;DHT22;14583;43.604;1.364;2023-08-12T03:05:08;23.40;99.90
26408;DHT22;14583;43.604;1.364;2023-08-12T03:07:34;23.40;99.90
26408;DHT22;14583;43.604;1.364;2023-08-12T03:09:59;23.50;99.90
26408;DHT22;14583;43.604;1.364;2023-08-12T03:12:25;23.20;99.90
26408;DHT22;14583;43.604;1.364;2023-08-12T03:14:50;23.20;99.90
26408;DHT22;14583;43.604;1.364;2023-08-12T03:17:16;23.30;99.90
26408;DHT22;14583;43.604;1.364;2023-08-12T03:19:41;23.40;99.90
26408;DHT22;14583;43.604;1.364;2023-08-12T03:22:07;23.30;99.90
26408;DHT22;14583;43.604;1.364;2023-08-12T03:24:33;23.20;99.90
26408;DHT22;14583;43.604;1.364;2023-08-12T03:26:58;23.00;99.90
26408;DHT22;14583;43.604;1.364;2023-08-12T03:29:24;23.00;99.90
26408;DHT22;14583;43.604;1.364;2023-08-12T03:31:50;23.00;99.90
26408;DHT22;14583;43.604;1.364;2023-08-12T03:34:15;23.00;99.90
26408;DHT22;14583;43.604;1.364;2023-08-12T03:36:41;23.00;99.90
26408;DHT22;14583;43.604;1.364;2023-08-12T03:39:06;22.90;99.90
26408;DHT22;14583;43.604;1.364;2023-08-12T03:41:32;22.80;99.90
26408;DHT22;14583;43.604;1.364;2023-08-12T03:43:57;22.70;99.90
26408;DHT22;14583;43.604;1.364;2023-08-12T03:46:23;22.60;99.90
26408;DHT22;14583;43.604;1.364;2023-08-12T03:48:48;22.60;99.90
26408;DHT22;14583;43.604;1.364;2023-08-12T03:51:14;22.70;99.90
26408;DHT22;14583;43.604;1.364;2023-08-12T03:53:40;22.70;99.90
26408;DHT22;14583;43.604;1.364;2023-08-12T03:56:05;22.60;99.90
26408;DHT22;14583;43.604;1.364;2023-08-12T03:58:31;22.60;99.90
26408;DHT22;14583;43.604;1.364;2023-08-12T04:00:56;22.60;99.90
26408;DHT22;14583;43.604;1.364;2023-08-12T04:03:22;22.50;99.90
26408;DHT22;14583;43.604;1.364;2023-08-12T04:05:50;22.50;99.90
26408;DHT22;14583;43.604;1.364;2023-08-12T04:08:18;22.40;99.90
26408;DHT22;14583;43.604;1.364;2023-08-12T04:10:44;22.40;99.90
26408;DHT22;14583;43.604;1.364;2023-08-12T04:13:10;22.30;99.90
26408;DHT22;14583;43.604;1.364;2023-08-12T04:15:35;22.30;99.90
26408;DHT22;14583;43.604;1.364;2023-08-12T04:18:01;22.40;99.90
26408;DHT22;14583;43.604;1.364;2023-08-12T04:20:26;22.60;99.90
26408;DHT22;14583;43.604;1.364;2023-08-12T04:22:52;22.50;99.90
26408;DHT22;14583;43.604;1.364;2023-08-12T04:25:17;22.40;99.90
26408;DHT22;14583;43.604;1.364;2023-08-12T04:27:43;22.30;99.90
26408;DHT22;14583;43.604;1.364;2023-08-12T04:30:09;22.30;99.90
26408;DHT22;14583;43.604;1.364;2023-08-12T04:32:34;22.30;99.90
26408;DHT22;14583;43.604;1.364;2023-08-12T04:35:00;22.20;99.90
26408;DHT22;14583;43.604;1.364;2023-08-12T04:37:25;22.20;99.90
26408;DHT22;14583;43.604;1.364;2023-08-12T04:39:51;22.10;99.90
26408;DHT22;14583;43.604;1.364;2023-08-12T04:42:16;22.10;99.90
26408;DHT22;14583;43.604;1.364;2023-08-12T04:44:42;22.00;99.90
26408;DHT22;14583;43.604;1.364;2023-08-12T04:47:08;22.00;99.90
26408;DHT22;14583;43.604;1.364;2023-08-12T04:49:33;22.00;99.90
26408;DHT22;14583;43.604;1.364;2023-08-12T04:51:59;22.00;99.90
26408;DHT22;14583;43.604;1.364;2023-08-12T04:54:24;22.20;99.90
26408;DHT22;14583;43.604;1.364;2023-08-12T04:56:50;22.20;99.90
26408;DHT22;14583;43.604;1.364;2023-08-12T04:59:15;22.20;99.90
26408;DHT22;14583;43.604;1.364;2023-08-12T05:01:41;22.20;99.90
26408;DHT22;14583;43.604;1.364;2023-08-12T05:04:06;22.20;99.90
26408;DHT22;14583;43.604;1.364;2023-08-12T05:06:32;22.10;99.90
26408;DHT22;14583;43.604;1.364;2023-08-12T05:08:57;22.20;99.90
26408;DHT22;14583;43.604;1.364;2023-08-12T05:11:23;22.30;99.90
26408;DHT22;14583;43.604;1.364;2023-08-12T05:13:48;22.40;99.90
26408;DHT22;14583;43.604;1.364;2023-08-12T05:16:14;22.50;99.90
26408;DHT22;14583;43.604;1.364;2023-08-12T05:18:39;22.50;99.90
26408;DHT22;14583;43.604;1.364;2023-08-12T05:21:05;22.30;99.90
26408;DHT22;14583;43.604;1.364;2023-08-12T05:23:30;22.30;99.90
26408;DHT22;14583;43.604;1.364;2023-08-12T05:25:56;22.30;99.90
26408;DHT22;14583;43.604;1.364;2023-08-12T05:28:21;22.30;99.90
26408;DHT22;14583;43.604;1.364;2023-08-12T05:30:47;22.30;99.90
26408;DHT22;14583;43.604;1.364;2023-08-12T05:33:13;22.30;99.90
26408;DHT22;14583;43.604;1.364;2023-08-12T05:35:39;22.40;99.90
26408;DHT22;14583;43.604;1.364;2023-08-12T05:38:04;22.40;99.90
26408;DHT22;14583;43.604;1.364;2023-08-12T05:40:30;22.50;99.90
26408;DHT22;14583;43.604;1.364;2023-08-12T05:42:55;22.60;99.90
26408;DHT22;14583;43.604;1.364;2023-08-12T05:45:21;22.60;99.90
26408;DHT22;14583;43.604;1.364;2023-08-12T05:47:49;22.60;99.90
26408;DHT22;14583;43.604;1.364;2023-08-12T05:50:17;22.60;99.90
26408;DHT22;14583;43.604;1.364;2023-08-12T05:52:43;22.70;99.90
26408;DHT22;14583;43.604;1.364;2023-08-12T05:55:08;22.70;99.90
26408;DHT22;14583;43.604;1.364;2023-08-12T05:57:34;22.70;99.90
26408;DHT22;14583;43.604;1.364;2023-08-12T05:59:59;22.70;99.90
26408;DHT22;14583;43.604;1.364;2023-08-12T06:02:25;22.90;99.90
26408;DHT22;14583;43.604;1.364;2023-08-12T06:04:51;22.90;99.90
26408;DHT22;14583;43.604;1.364;2023-08-12T06:07:17;23.00;99.90
26408;DHT22;14583;43.604;1.364;2023-08-12T06:09:43;22.90;99.90
26408;DHT22;14583;43.604;1.364;2023-08-12T06:12:09;23.00;99.90
26408;DHT22;14583;43.604;1.364;2023-08-12T06:14:37;23.00;99.90
26408;DHT22;14583;43.604;1.364;2023-08-12T06:17:03;23.00;99.90
26408;DHT22;14583;43.604;1.364;2023-08-12T06:19:28;22.90;99.90
26408;DHT22;14583;43.604;1.364;2023-08-12T06:21:54;23.00;99.90
26408;DHT22;14583;43.604;1.364;2023-08-12T06:24:19;23.10;99.90
26408;DHT22;14583;43.604;1.364;2023-08-12T06:26:45;23.00;99.90
26408;DHT22;14583;43.604;1.364;2023-08-12T06:29:10;23.10;99.90
26408;DHT22;14583;43.604;1.364;2023-08-12T06:31:36;23.10;99.90
26408;DHT22;14583;43.604;1.364;2023-08-12T06:34:01;23.20;99.90
26408;DHT22;14583;43.604;1.364;2023-08-12T06:36:27;23.10;99.90
26408;DHT22;14583;43.604;1.364;2023-08-12T06:38:53;23.20;99.90
26408;DHT22;14583;43.604;1.364;2023-08-12T06:41:18;23.20;99.90
26408;DHT22;14583;43.604;1.364;2023-08-12T06:43:44;23.20;99.90
26408;DHT22;14583;43.604;1.364;2023-08-12T06:46:09;23.20;99.90
26408;DHT22;14583;43.604;1.364;2023-08-12T06:48:35;23.50;99.90
26408;DHT22;14583;43.604;1.364;2023-08-12T06:51:00;23.40;99.90
26408;DHT22;14583;43.604;1.364;2023-08-12T06:53:29;23.40;99.90
26408;DHT22;14583;43.604;1.364;2023-08-12T06:55:55;23.50;99.90
26408;DHT22;14583;43.604;1.364;2023-08-12T06:58:20;23.50;99.90
26408;DHT22;14583;43.604;1.364;2023-08-12T07:00:46;23.70;99.90
26408;DHT22;14583;43.604;1.364;2023-08-12T07:03:12;23.80;99.90
26408;DHT22;14583;43.604;1.364;2023-08-12T07:05:37;23.80;99.90
26408;DHT22;14583;43.604;1.364;2023-08-12T07:08:03;23.70;99.90
26408;DHT22;14583;43.604;1.364;2023-08-12T07:10:28;23.80;99.90
26408;DHT22;14583;43.604;1.364;2023-08-12T07:12:54;23.90;99.90
26408;DHT22;14583;43.604;1.364;2023-08-12T07:15:19;24.00;99.90
26408;DHT22;14583;43.604;1.364;2023-08-12T07:17:45;24.00;99.90
26408;DHT22;14583;43.604;1.364;2023-08-12T07:20:10;24.00;99.90
26408;DHT22;14583;43.604;1.364;2023-08-12T07:22:36;24.00;99.90
26408;DHT22;14583;43.604;1.364;2023-08-12T07:25:01;24.00;99.90
26408;DHT22;14583;43.604;1.364;2023-08-12T07:27:27;24.00;99.90
26408;DHT22;14583;43.604;1.364;2023-08-12T07:29:53;24.10;99.90
26408;DHT22;14583;43.604;1.364;2023-08-12T07:32:19;24.10;99.90
26408;DHT22;14583;43.604;1.364;2023-08-12T07:34:44;24.10;99.90
26408;DHT22;14583;43.604;1.364;2023-08-12T07:37:10;24.10;99.90
26408;DHT22;14583;43.604;1.364;2023-08-12T07:39:36;24.20;99.90
26408;DHT22;14583;43.604;1.364;2023-08-12T07:42:01;24.30;99.90
26408;DHT22;14583;43.604;1.364;2023-08-12T07:44:27;24.40;99.90
26408;DHT22;14583;43.604;1.364;2023-08-12T07:46:53;24.50;99.90
26408;DHT22;14583;43.604;1.364;2023-08-12T07:49:18;24.50;99.90
26408;DHT22;14583;43.604;1.364;2023-08-12T07:51:44;24.50;99.90
26408;DHT22;14583;43.604;1.364;2023-08-12T07:54:10;24.60;99.90
26408;DHT22;14583;43.604;1.364;2023-08-12T07:56:35;24.60;99.90
26408;DHT22;14583;43.604;1.364;2023-08-12T07:59:01;24.70;99.90
26408;DHT22;14583;43.604;1.364;2023-08-12T08:01:26;24.70;99.90
26408;DHT22;14583;43.604;1.364;2023-08-12T08:03:52;24.60;99.90
26408;DHT22;14583;43.604;1.364;2023-08-12T08:06:17;24.80;99.90
26408;DHT22;14583;43.604;1.364;2023-08-12T08:08:43;24.80;99.90
26408;DHT22;14583;43.604;1.364;2023-08-12T08:11:08;24.80;99.90
26408;DHT22;14583;43.604;1.364;2023-08-12T08:13:34;24.70;99.90
26408;DHT22;14583;43.604;1.364;2023-08-12T08:16:00;24.60;99.90
26408;DHT22;14583;43.604;1.364;2023-08-12T08:18:28;24.60;99.90
26408;DHT22;14583;43.604;1.364;2023-08-12T08:20:54;24.70;99.90
26408;DHT22;14583;43.604;1.364;2023-08-12T08:23:19;24.90;99.90
26408;DHT22;14583;43.604;1.364;2023-08-12T08:25:45;24.90;99.90
26408;DHT22;14583;43.604;1.364;2023-08-12T08:28:10;25.10;99.90
26408;DHT22;14583;43.604;1.364;2023-08-12T08:30:36;25.10;99.90
26408;DHT22;14583;43.604;1.364;2023-08-12T08:33:02;25.20;99.90
26408;DHT22;14583;43.604;1.364;2023-08-12T08:35:27;25.30;99.90
26408;DHT22;14583;43.604;1.364;2023-08-12T08:37:53;25.30;99.90
26408;DHT22;14583;43.604;1.364;2023-08-12T08:40:21;25.40;99.90
26408;DHT22;14583;43.604;1.364;2023-08-12T08:42:46;25.40;99.90
26408;DHT22;14583;43.604;1.364;2023-08-12T08:45:16;25.40;99.90
26408;DHT22;14583;43.604;1.364;2023-08-12T08:47:42;25.50;99.90
26408;DHT22;14583;43.604;1.364;2023-08-12T08:50:08;25.50;99.90
26408;DHT22;14583;43.604;1.364;2023-08-12T08:52:34;25.40;99.90
26408;DHT22;14583;43.604;1.364;2023-08-12T08:55:03;25.50;99.90
26408;DHT22;14583;43.604;1.364;2023-08-12T08:57:29;25.50;99.90
26408;DHT22;14583;43.604;1.364;2023-08-12T08:59:55;25.60;99.90
26408;DHT22;14583;43.604;1.364;2023-08-12T09:02:21;25.60;99.90
26408;DHT22;14583;43.604;1.364;2023-08-12T09:04:46;25.70;99.90
26408;DHT22;14583;43.604;1.364;2023-08-12T09:07:12;25.70;99.90
26408;DHT22;14583;43.604;1.364;2023-08-12T09:09:42;25.80;99.90
26408;DHT22;14583;43.604;1.364;2023-08-12T09:12:09;25.80;99.90
26408;DHT22;14583;43.604;1.364;2023-08-12T09:14:36;25.90;99.90
26408;DHT22;14583;43.604;1.364;2023-08-12T09:17:02;25.80;99.90
26408;DHT22;14583;43.604;1.364;2023-08-12T09:19:28;25.90;99.90
26408;DHT22;14583;43.604;1.364;2023-08-12T09:21:53;25.90;99.90
26408;DHT22;14583;43.604;1.364;2023-08-12T09:24:25;26.00;99.90
26408;DHT22;14583;43.604;1.364;2023-08-12T09:26:51;26.10;99.90
26408;DHT22;14583;43.604;1.364;2023-08-12T09:29:17;26.10;99.90
26408;DHT22;14583;43.604;1.364;2023-08-12T09:31:43;26.10;99.90
26408;DHT22;14583;43.604;1.364;2023-08-12T09:34:08;26.20;99.90
26408;DHT22;14583;43.604;1.364;2023-08-12T09:36:34;26.20;99.90
26408;DHT22;14583;43.604;1.364;2023-08-12T09:38:59;26.30;99.90
26408;DHT22;14583;43.604;1.364;2023-08-12T09:41:28;26.40;99.90
26408;DHT22;14583;43.604;1.364;2023-08-12T09:43:55;26.50;99.90
26408;DHT22;14583;43.604;1.364;2023-08-12T09:46:22;26.50;99.90
26408;DHT22;14583;43.604;1.364;2023-08-12T09:48:49;26.60;99.90
26408;DHT22;14583;43.604;1.364;2023-08-12T09:51:15;26.70;99.90
26408;DHT22;14583;43.604;1.364;2023-08-12T09:53:41;26.70;99.90
26408;DHT22;14583;43.604;1.364;2023-08-12T09:56:07;26.80;99.90
26408;DHT22;14583;43.604;1.364;2023-08-12T09:58:35;26.80;99.90
26408;DHT22;14583;43.604;1.364;2023-08-12T10:01:02;26.90;99.90
26408;DHT22;14583;43.604;1.364;2023-08-12T10:03:28;26.90;99.90
26408;DHT22;14583;43.604;1.364;2023-08-12T10:05:54;26.80;99.90
26408;DHT22;14583;43.604;1.364;2023-08-12T10:08:19;26.80;99.90
26408;DHT22;14583;43.604;1.364;2023-08-12T10:10:45;26.90;99.90
26408;DHT22;14583;43.604;1.364;2023-08-12T10:13:11;27.00;99.90
26408;DHT22;14583;43.604;1.364;2023-08-12T10:15:37;26.90;99.90
26408;DHT22;14583;43.604;1.364;2023-08-12T10:18:04;27.00;99.90
26408;DHT22;14583;43.604;1.364;2023-08-12T10:20:30;27.10;99.90
26408;DHT22;14583;43.604;1.364;2023-08-12T10:22:56;27.20;99.90
26408;DHT22;14583;43.604;1.364;2023-08-12T10:25:22;27.20;99.90
26408;DHT22;14583;43.604;1.364;2023-08-12T10:27:50;27.30;99.90
26408;DHT22;14583;43.604;1.364;2023-08-12T10:30:15;27.40;99.90
26408;DHT22;14583;43.604;1.364;2023-08-12T10:32:41;27.40;99.90
26408;DHT22;14583;43.604;1.364;2023-08-12T10:35:07;27.60;99.90
26408;DHT22;14583;43.604;1.364;2023-08-12T10:37:34;27.80;99.90
26408;DHT22;14583;43.604;1.364;2023-08-12T10:40:02;27.80;99.90
26408;DHT22;14583;43.604;1.364;2023-08-12T10:42:44;27.70;99.90
26408;DHT22;14583;43.604;1.364;2023-08-12T10:45:14;27.60;99.90
26408;DHT22;14583;43.604;1.364;2023-08-12T10:47:40;27.90;99.90
26408;DHT22;14583;43.604;1.364;2023-08-12T10:50:12;27.90;99.90
26408;DHT22;14583;43.604;1.364;2023-08-12T10:52:41;27.90;99.90
26408;DHT22;14583;43.604;1.364;2023-08-12T10:55:30;27.90;99.90
26408;DHT22;14583;43.604;1.364;2023-08-12T10:57:57;28.10;99.90
26408;DHT22;14583;43.604;1.364;2023-08-12T11:00:24;28.20;99.90
26408;DHT22;14583;43.604;1.364;2023-08-12T11:02:50;28.20;99.90
26408;DHT22;14583;43.604;1.364;2023-08-12T11:05:16;28.30;99.90
26408;DHT22;14583;43.604;1.364;2023-08-12T11:07:45;28.40;99.90
26408;DHT22;14583;43.604;1.364;2023-08-12T11:10:23;28.40;99.90
26408;DHT22;14583;43.604;1.364;2023-08-12T11:15:18;28.30;99.90
26408;DHT22;14583;43.604;1.364;2023-08-12T11:17:45;28.40;99.90
26408;DHT22;14583;43.604;1.364;2023-08-12T11:20:13;28.50;99.90
26408;DHT22;14583;43.604;1.364;2023-08-12T11:22:43;28.40;99.90
26408;DHT22;14583;43.604;1.364;2023-08-12T11:25:09;28.40;99.90
26408;DHT22;14583;43.604;1.364;2023-08-12T11:27:43;28.60;99.90
26408;DHT22;14583;43.604;1.364;2023-08-12T11:30:10;28.70;99.60
26408;DHT22;14583;43.604;1.364;2023-08-12T11:32:36;28.70;99.70
26408;DHT22;14583;43.604;1.364;2023-08-12T11:35:02;28.70;99.80
26408;DHT22;14583;43.604;1.364;2023-08-12T11:37:29;28.70;99.90
26408;DHT22;14583;43.604;1.364;2023-08-12T11:39:54;28.90;99.80
26408;DHT22;14583;43.604;1.364;2023-08-12T11:42:20;28.90;99.80
26408;DHT22;14583;43.604;1.364;2023-08-12T11:44:45;29.20;99.20
26408;DHT22;14583;43.604;1.364;2023-08-12T11:47:11;29.40;98.70
26408;DHT22;14583;43.604;1.364;2023-08-12T11:49:36;29.30;99.00
26408;DHT22;14583;43.604;1.364;2023-08-12T11:52:03;29.10;98.70
26408;DHT22;14583;43.604;1.364;2023-08-12T11:54:28;29.10;98.50
26408;DHT22;14583;43.604;1.364;2023-08-12T11:56:54;29.20;98.60
26408;DHT22;14583;43.604;1.364;2023-08-12T11:59:22;29.30;98.40
26408;DHT22;14583;43.604;1.364;2023-08-12T12:01:51;29.30;98.20
26408;DHT22;14583;43.604;1.364;2023-08-12T12:04:16;29.40;98.40
26408;DHT22;14583;43.604;1.364;2023-08-12T12:06:45;29.40;97.60
26408;DHT22;14583;43.604;1.364;2023-08-12T12:09:11;29.50;98.00
26408;DHT22;14583;43.604;1.364;2023-08-12T12:11:39;29.60;97.70
26408;DHT22;14583;43.604;1.364;2023-08-12T12:14:06;29.50;97.30
26408;DHT22;14583;43.604;1.364;2023-08-12T12:16:45;29.60;97.50
26408;DHT22;14583;43.604;1.364;2023-08-12T12:21:39;29.60;98.10
26408;DHT22;14583;43.604;1.364;2023-08-12T12:24:06;29.50;97.60
26408;DHT22;14583;43.604;1.364;2023-08-12T12:26:32;29.70;97.10
26408;DHT22;14583;43.604;1.364;2023-08-12T12:28:57;29.70;96.70
26408;DHT22;14583;43.604;1.364;2023-08-12T12:31:26;29.80;97.10
26408;DHT22;14583;43.604;1.364;2023-08-12T12:33:51;30.00;97.00
26408;DHT22;14583;43.604;1.364;2023-08-12T12:36:17;30.30;97.10
26408;DHT22;14583;43.604;1.364;2023-08-12T12:38:42;30.30;97.00
26408;DHT22;14583;43.604;1.364;2023-08-12T12:41:08;30.30;96.50
26408;DHT22;14583;43.604;1.364;2023-08-12T12:43:34;30.30;96.20
26408;DHT22;14583;43.604;1.364;2023-08-12T12:45:59;30.20;96.30
26408;DHT22;14583;43.604;1.364;2023-08-12T12:48:25;30.20;96.00
26408;DHT22;14583;43.604;1.364;2023-08-12T12:50:50;30.40;96.20
26408;DHT22;14583;43.604;1.364;2023-08-12T12:53:16;30.50;95.70
26408;DHT22;14583;43.604;1.364;2023-08-12T12:55:42;30.70;95.30
26408;DHT22;14583;43.604;1.364;2023-08-12T12:58:07;30.90;94.90
26408;DHT22;14583;43.604;1.364;2023-08-12T13:00:34;30.90;95.20
26408;DHT22;14583;43.604;1.364;2023-08-12T13:03:00;30.90;94.80
26408;DHT22;14583;43.604;1.364;2023-08-12T13:05:25;31.00;94.90
26408;DHT22;14583;43.604;1.364;2023-08-12T13:07:51;31.00;94.30
26408;DHT22;14583;43.604;1.364;2023-08-12T13:10:16;30.90;94.00
26408;DHT22;14583;43.604;1.364;2023-08-12T13:12:42;30.80;94.10
26408;DHT22;14583;43.604;1.364;2023-08-12T13:15:07;31.00;94.40
26408;DHT22;14583;43.604;1.364;2023-08-12T13:17:33;31.00;94.10
26408;DHT22;14583;43.604;1.364;2023-08-12T13:19:59;31.00;93.60
26408;DHT22;14583;43.604;1.364;2023-08-12T13:22:24;31.00;93.70
26408;DHT22;14583;43.604;1.364;2023-08-12T13:24:50;31.00;94.00
26408;DHT22;14583;43.604;1.364;2023-08-12T13:27:16;31.10;93.60
26408;DHT22;14583;43.604;1.364;2023-08-12T13:29:42;31.20;93.70
26408;DHT22;14583;43.604;1.364;2023-08-12T13:32:08;31.20;93.00
26408;DHT22;14583;43.604;1.364;2023-08-12T13:34:34;31.20;93.20
26408;DHT22;14583;43.604;1.364;2023-08-12T13:36:59;31.20;93.50
26408;DHT22;14583;43.604;1.364;2023-08-12T13:39:25;31.20;93.20
26408;DHT22;14583;43.604;1.364;2023-08-12T13:41:50;31.20;92.90
26408;DHT22;14583;43.604;1.364;2023-08-12T13:44:16;31.30;93.00
26408;DHT22;14583;43.604;1.364;2023-08-12T13:46:41;31.50;92.60
26408;DHT22;14583;43.604;1.364;2023-08-12T13:49:07;31.90;92.60
26408;DHT22;14583;43.604;1.364;2023-08-12T13:51:32;31.90;92.00
26408;DHT22;14583;43.604;1.364;2023-08-12T13:53:58;31.80;92.40
26408;DHT22;14583;43.604;1.364;2023-08-12T13:56:26;31.90;91.40
26408;DHT22;14583;43.604;1.364;2023-08-12T13:58:51;32.00;92.00
26408;DHT22;14583;43.604;1.364;2023-08-12T14:01:17;31.70;91.60
26408;DHT22;14583;43.604;1.364;2023-08-12T14:03:42;31.60;91.80
26408;DHT22;14583;43.604;1.364;2023-08-12T14:06:08;31.50;92.10
26408;DHT22;14583;43.604;1.364;2023-08-12T14:08:34;31.60;91.80
26408;DHT22;14583;43.604;1.364;2023-08-12T14:11:00;31.80;92.60
26408;DHT22;14583;43.604;1.364;2023-08-12T14:13:25;32.20;91.80
26408;DHT22;14583;43.604;1.364;2023-08-12T14:15:52;32.40;91.00
26408;DHT22;14583;43.604;1.364;2023-08-12T14:18:18;32.60;91.00
26408;DHT22;14583;43.604;1.364;2023-08-12T14:20:43;32.70;91.20
26408;DHT22;14583;43.604;1.364;2023-08-12T14:23:09;32.80;90.50
26408;DHT22;14583;43.604;1.364;2023-08-12T14:25:34;33.00;90.70
26408;DHT22;14583;43.604;1.364;2023-08-12T14:28:00;33.10;90.20
26408;DHT22;14583;43.604;1.364;2023-08-12T14:30:25;33.20;89.70
26408;DHT22;14583;43.604;1.364;2023-08-12T14:32:51;33.30;91.20
26408;DHT22;14583;43.604;1.364;2023-08-12T14:35:17;33.50;90.50
26408;DHT22;14583;43.604;1.364;2023-08-12T14:37:42;33.70;90.10
26408;DHT22;14583;43.604;1.364;2023-08-12T14:40:08;33.60;90.20
26408;DHT22;14583;43.604;1.364;2023-08-12T14:42:34;33.50;89.60
26408;DHT22;14583;43.604;1.364;2023-08-12T14:45:00;33.70;90.30
26408;DHT22;14583;43.604;1.364;2023-08-12T14:47:26;33.90;90.20
26408;DHT22;14583;43.604;1.364;2023-08-12T14:49:52;33.90;88.30
26408;DHT22;14583;43.604;1.364;2023-08-12T14:52:19;33.80;89.80
26408;DHT22;14583;43.604;1.364;2023-08-12T14:54:44;33.60;88.40
26408;DHT22;14583;43.604;1.364;2023-08-12T14:57:10;33.60;90.30
26408;DHT22;14583;43.604;1.364;2023-08-12T14:59:36;33.70;90.40
26408;DHT22;14583;43.604;1.364;2023-08-12T15:02:01;33.90;90.50
26408;DHT22;14583;43.604;1.364;2023-08-12T15:04:27;34.00;89.70
26408;DHT22;14583;43.604;1.364;2023-08-12T15:06:53;33.60;88.10
26408;DHT22;14583;43.604;1.364;2023-08-12T15:09:18;33.60;90.70
26408;DHT22;14583;43.604;1.364;2023-08-12T15:11:44;34.00;90.50
26408;DHT22;14583;43.604;1.364;2023-08-12T15:14:10;34.30;90.30
26408;DHT22;14583;43.604;1.364;2023-08-12T15:16:35;34.70;90.00
26408;DHT22;14583;43.604;1.364;2023-08-12T15:19:01;34.70;87.90
26408;DHT22;14583;43.604;1.364;2023-08-12T15:21:27;34.60;86.80
26408;DHT22;14583;43.604;1.364;2023-08-12T15:23:53;34.10;88.20
26408;DHT22;14583;43.604;1.364;2023-08-12T15:26:18;34.10;89.50
26408;DHT22;14583;43.604;1.364;2023-08-12T15:28:44;34.20;88.90
26408;DHT22;14583;43.604;1.364;2023-08-12T15:31:11;34.40;89.60
26408;DHT22;14583;43.604;1.364;2023-08-12T15:33:37;34.70;88.60